sensor_id;sensor_type;location;lat;lon;timestamp;P1;durP1;ratioP1;P2;durP2;ratioP2
74044;SDS011;62389;51.412;5.436;2022-09-30T00:01:36;7.15;;;4.78;;
74044;SDS011;62389;51.412;5.436;2022-09-30T00:04:03;8.75;;;5.00;;
74044;SDS011;62389;51.412;5.436;2022-09-30T00:06:30;6.78;;;4.60;;
74044;SDS011;62389;51.412;5.436;2022-09-30T00:08:56;9.45;;;4.72;;
74044;SDS011;62389;51.412;5.436;2022-09-30T00:11:25;6.50;;;4.45;;
74044;SDS011;62389;51.412;5.436;2022-09-30T00:13:55;6.63;;;4.50;;
74044;SDS011;62389;51.412;5.436;2022-09-30T00:16:22;6.00;;;3.60;;
74044;SDS011;62389;51.412;5.436;2022-09-30T00:18:49;10.60;;;4.60;;
74044;SDS011;62389;51.412;5.436;2022-09-30T00:21:15;6.00;;;3.90;;
74044;SDS011;62389;51.412;5.436;2022-09-30T00:23:41;7.28;;;4.00;;
74044;SDS011;62389;51.412;5.436;2022-09-30T00:26:12;5.22;;;3.70;;
74044;SDS011;62389;51.412;5.436;2022-09-30T00:28:39;7.47;;;3.60;;
74044;SDS011;62389;51.412;5.436;2022-09-30T00:33:33;5.70;;;3.80;;
74044;SDS011;62389;51.412;5.436;2022-09-30T00:35:59;6.13;;;3.55;;
74044;SDS011;62389;51.412;5.436;2022-09-30T00:38:25;6.85;;;4.50;;
74044;SDS011;62389;51.412;5.436;2022-09-30T00:40:51;7.43;;;3.65;;
74044;SDS011;62389;51.412;5.436;2022-09-30T00:43:18;6.55;;;4.60;;
74044;SDS011;62389;51.412;5.436;2022-09-30T00:46:02;6.82;;;4.38;;
74044;SDS011;62389;51.412;5.436;2022-09-30T00:48:36;5.20;;;3.47;;
74044;SDS011;62389;51.412;5.436;2022-09-30T00:51:03;5.82;;;4.03;;
74044;SDS011;62389;51.412;5.436;2022-09-30T00:56:11;5.80;;;4.03;;
74044;SDS011;62389;51.412;5.436;2022-09-30T00:58:44;5.25;;;3.83;;
74044;SDS011;62389;51.412;5.436;2022-09-30T01:01:15;6.30;;;4.20;;
74044;SDS011;62389;51.412;5.436;2022-09-30T01:03:44;6.25;;;4.10;;
74044;SDS011;62389;51.412;5.436;2022-09-30T01:06:16;5.70;;;4.03;;
74044;SDS011;62389;51.412;5.436;2022-09-30T01:08:41;8.32;;;4.35;;
74044;SDS011;62389;51.412;5.436;2022-09-30T01:11:08;6.35;;;3.88;;
74044;SDS011;62389;51.412;5.436;2022-09-30T01:13:33;6.45;;;3.78;;
74044;SDS011;62389;51.412;5.436;2022-09-30T01:32:27;7.32;;;4.40;;
74044;SDS011;62389;51.412;5.436;2022-09-30T01:37:43;5.65;;;3.97;;
74044;SDS011;62389;51.412;5.436;2022-09-30T01:48:22;8.32;;;4.57;;
74044;SDS011;62389;51.412;5.436;2022-09-30T01:51:04;7.35;;;4.40;;
74044;SDS011;62389;51.412;5.436;2022-09-30T01:54:09;7.60;;;4.40;;
74044;SDS011;62389;51.412;5.436;2022-09-30T01:56:34;9.15;;;5.03;;
74044;SDS011;62389;51.412;5.436;2022-09-30T01:59:08;7.82;;;4.88;;
74044;SDS011;62389;51.412;5.436;2022-09-30T02:01:44;9.35;;;4.75;;
74044;SDS011;62389;51.412;5.436;2022-09-30T02:04:16;8.25;;;4.45;;
74044;SDS011;62389;51.412;5.436;2022-09-30T02:06:54;7.80;;;4.40;;
74044;SDS011;62389;51.412;5.436;2022-09-30T02:09:26;7.97;;;4.13;;
74044;SDS011;62389;51.412;5.436;2022-09-30T02:11:56;7.35;;;4.50;;
74044;SDS011;62389;51.412;5.436;2022-09-30T02:14:36;9.15;;;4.10;;
74044;SDS011;62389;51.412;5.436;2022-09-30T02:17:15;6.72;;;4.60;;
74044;SDS011;62389;51.412;5.436;2022-09-30T02:19:46;5.60;;;4.15;;
74044;SDS011;62389;51.412;5.436;2022-09-30T02:22:18;7.22;;;5.00;;
74044;SDS011;62389;51.412;5.436;2022-09-30T02:24:46;8.40;;;5.32;;
74044;SDS011;62389;51.412;5.436;2022-09-30T02:27:28;9.85;;;4.95;;
74044;SDS011;62389;51.412;5.436;2022-09-30T02:30:05;6.10;;;4.15;;
74044;SDS011;62389;51.412;5.436;2022-09-30T02:32:34;8.25;;;4.18;;
74044;SDS011;62389;51.412;5.436;2022-09-30T02:35:05;6.85;;;4.78;;
74044;SDS011;62389;51.412;5.436;2022-09-30T02:37:41;9.43;;;4.18;;
74044;SDS011;62389;51.412;5.436;2022-09-30T02:42:34;6.78;;;4.85;;
74044;SDS011;62389;51.412;5.436;2022-09-30T02:45:04;9.23;;;5.00;;
74044;SDS011;62389;51.412;5.436;2022-09-30T02:58:24;6.88;;;4.47;;
74044;SDS011;62389;51.412;5.436;2022-09-30T03:00:50;7.30;;;4.70;;
74044;SDS011;62389;51.412;5.436;2022-09-30T03:03:26;8.75;;;5.18;;
74044;SDS011;62389;51.412;5.436;2022-09-30T03:05:55;7.63;;;5.50;;
74044;SDS011;62389;51.412;5.436;2022-09-30T03:08:20;6.65;;;4.55;;
74044;SDS011;62389;51.412;5.436;2022-09-30T03:10:47;8.98;;;5.25;;
74044;SDS011;62389;51.412;5.436;2022-09-30T03:15:58;7.63;;;4.63;;
74044;SDS011;62389;51.412;5.436;2022-09-30T03:18:39;6.55;;;4.68;;
74044;SDS011;62389;51.412;5.436;2022-09-30T03:34:37;9.00;;;5.82;;
74044;SDS011;62389;51.412;5.436;2022-09-30T03:40:06;10.25;;;5.65;;
74044;SDS011;62389;51.412;5.436;2022-09-30T03:42:37;8.38;;;5.85;;
74044;SDS011;62389;51.412;5.436;2022-09-30T03:45:09;12.45;;;6.68;;
74044;SDS011;62389;51.412;5.436;2022-09-30T03:47:45;12.15;;;6.88;;
74044;SDS011;62389;51.412;5.436;2022-09-30T03:50:16;10.80;;;6.85;;
74044;SDS011;62389;51.412;5.436;2022-09-30T03:52:44;10.77;;;7.38;;
74044;SDS011;62389;51.412;5.436;2022-09-30T03:55:10;10.50;;;7.15;;
74044;SDS011;62389;51.412;5.436;2022-09-30T03:57:36;13.13;;;7.82;;
74044;SDS011;62389;51.412;5.436;2022-09-30T04:00:02;11.30;;;7.35;;
74044;SDS011;62389;51.412;5.436;2022-09-30T04:02:29;12.82;;;7.70;;
74044;SDS011;62389;51.412;5.436;2022-09-30T04:04:55;11.32;;;7.18;;
74044;SDS011;62389;51.412;5.436;2022-09-30T04:07:20;12.32;;;8.07;;
74044;SDS011;62389;51.412;5.436;2022-09-30T04:09:46;12.95;;;7.60;;
74044;SDS011;62389;51.412;5.436;2022-09-30T04:12:11;12.18;;;8.10;;
74044;SDS011;62389;51.412;5.436;2022-09-30T04:14:37;11.10;;;7.57;;
74044;SDS011;62389;51.412;5.436;2022-09-30T04:17:02;13.70;;;8.38;;
74044;SDS011;62389;51.412;5.436;2022-09-30T04:19:28;9.93;;;7.22;;
74044;SDS011;62389;51.412;5.436;2022-09-30T04:21:54;13.88;;;8.30;;
74044;SDS011;62389;51.412;5.436;2022-09-30T04:24:20;11.45;;;7.78;;
74044;SDS011;62389;51.412;5.436;2022-09-30T04:26:46;12.60;;;8.07;;
74044;SDS011;62389;51.412;5.436;2022-09-30T04:29:12;13.25;;;7.70;;
74044;SDS011;62389;51.412;5.436;2022-09-30T04:31:38;13.73;;;8.70;;
74044;SDS011;62389;51.412;5.436;2022-09-30T04:34:03;12.60;;;8.18;;
74044;SDS011;62389;51.412;5.436;2022-09-30T04:36:28;16.60;;;8.00;;
74044;SDS011;62389;51.412;5.436;2022-09-30T04:38:54;13.68;;;8.15;;
74044;SDS011;62389;51.412;5.436;2022-09-30T04:41:19;11.77;;;8.52;;
74044;SDS011;62389;51.412;5.436;2022-09-30T04:43:45;21.20;;;8.40;;
74044;SDS011;62389;51.412;5.436;2022-09-30T04:46:16;13.10;;;8.40;;
74044;SDS011;62389;51.412;5.436;2022-09-30T04:48:43;14.57;;;8.48;;
74044;SDS011;62389;51.412;5.436;2022-09-30T04:51:16;16.80;;;9.23;;
74044;SDS011;62389;51.412;5.436;2022-09-30T04:53:43;14.80;;;8.68;;
74044;SDS011;62389;51.412;5.436;2022-09-30T04:56:10;13.88;;;8.50;;
74044;SDS011;62389;51.412;5.436;2022-09-30T04:58:35;12.73;;;8.30;;
74044;SDS011;62389;51.412;5.436;2022-09-30T05:01:05;15.35;;;8.93;;
74044;SDS011;62389;51.412;5.436;2022-09-30T05:03:32;14.27;;;8.32;;
74044;SDS011;62389;51.412;5.436;2022-09-30T05:05:58;15.13;;;9.07;;
74044;SDS011;62389;51.412;5.436;2022-09-30T05:08:23;12.88;;;8.57;;
74044;SDS011;62389;51.412;5.436;2022-09-30T05:11:07;13.45;;;8.88;;
74044;SDS011;62389;51.412;5.436;2022-09-30T05:13:35;17.25;;;9.68;;
74044;SDS011;62389;51.412;5.436;2022-09-30T05:16:02;16.10;;;9.48;;
74044;SDS011;62389;51.412;5.436;2022-09-30T05:18:29;18.90;;;11.65;;
74044;SDS011;62389;51.412;5.436;2022-09-30T05:20:55;15.80;;;10.20;;
74044;SDS011;62389;51.412;5.436;2022-09-30T05:23:22;14.15;;;8.82;;
74044;SDS011;62389;51.412;5.436;2022-09-30T05:25:49;18.00;;;10.85;;
74044;SDS011;62389;51.412;5.436;2022-09-30T05:28:15;16.77;;;9.50;;
74044;SDS011;62389;51.412;5.436;2022-09-30T05:30:41;14.75;;;9.30;;
74044;SDS011;62389;51.412;5.436;2022-09-30T05:33:08;16.67;;;9.98;;
74044;SDS011;62389;51.412;5.436;2022-09-30T05:35:34;13.82;;;8.75;;
74044;SDS011;62389;51.412;5.436;2022-09-30T05:38:00;17.15;;;10.73;;
74044;SDS011;62389;51.412;5.436;2022-09-30T05:42:53;17.92;;;10.30;;
74044;SDS011;62389;51.412;5.436;2022-09-30T05:45:21;17.27;;;10.10;;
74044;SDS011;62389;51.412;5.436;2022-09-30T05:47:50;15.32;;;9.23;;
74044;SDS011;62389;51.412;5.436;2022-09-30T05:50:16;17.58;;;9.82;;
74044;SDS011;62389;51.412;5.436;2022-09-30T05:52:41;23.17;;;10.95;;
74044;SDS011;62389;51.412;5.436;2022-09-30T05:55:07;18.55;;;11.55;;
74044;SDS011;62389;51.412;5.436;2022-09-30T05:57:32;19.60;;;11.45;;
74044;SDS011;62389;51.412;5.436;2022-09-30T05:59:58;21.83;;;12.80;;
74044;SDS011;62389;51.412;5.436;2022-09-30T06:02:23;19.83;;;11.43;;
74044;SDS011;62389;51.412;5.436;2022-09-30T06:04:49;33.50;;;12.50;;
74044;SDS011;62389;51.412;5.436;2022-09-30T06:07:15;19.58;;;12.05;;
74044;SDS011;62389;51.412;5.436;2022-09-30T06:09:41;19.23;;;11.80;;
74044;SDS011;62389;51.412;5.436;2022-09-30T06:12:06;24.70;;;12.32;;
74044;SDS011;62389;51.412;5.436;2022-09-30T06:14:32;22.77;;;12.23;;
74044;SDS011;62389;51.412;5.436;2022-09-30T06:16:57;33.72;;;13.07;;
74044;SDS011;62389;51.412;5.436;2022-09-30T06:19:24;33.42;;;12.88;;
74044;SDS011;62389;51.412;5.436;2022-09-30T06:21:55;37.38;;;13.18;;
74044;SDS011;62389;51.412;5.436;2022-09-30T06:24:21;34.53;;;12.43;;
74044;SDS011;62389;51.412;5.436;2022-09-30T06:26:46;28.75;;;13.00;;
74044;SDS011;62389;51.412;5.436;2022-09-30T06:29:11;27.48;;;13.13;;
74044;SDS011;62389;51.412;5.436;2022-09-30T06:31:38;27.15;;;12.60;;
74044;SDS011;62389;51.412;5.436;2022-09-30T06:34:03;29.80;;;13.63;;
74044;SDS011;62389;51.412;5.436;2022-09-30T06:36:30;24.38;;;13.43;;
74044;SDS011;62389;51.412;5.436;2022-09-30T06:38:58;29.35;;;13.15;;
74044;SDS011;62389;51.412;5.436;2022-09-30T06:41:24;24.98;;;13.70;;
74044;SDS011;62389;51.412;5.436;2022-09-30T06:43:51;27.73;;;13.35;;
74044;SDS011;62389;51.412;5.436;2022-09-30T06:46:16;27.52;;;12.05;;
74044;SDS011;62389;51.412;5.436;2022-09-30T06:48:42;32.33;;;13.00;;
74044;SDS011;62389;51.412;5.436;2022-09-30T06:51:07;35.75;;;12.98;;
74044;SDS011;62389;51.412;5.436;2022-09-30T06:53:36;24.15;;;12.65;;
74044;SDS011;62389;51.412;5.436;2022-09-30T06:56:03;26.88;;;12.27;;
74044;SDS011;62389;51.412;5.436;2022-09-30T06:58:29;28.55;;;13.05;;
74044;SDS011;62389;51.412;5.436;2022-09-30T07:01:00;33.67;;;13.55;;
74044;SDS011;62389;51.412;5.436;2022-09-30T07:03:27;28.42;;;13.45;;
74044;SDS011;62389;51.412;5.436;2022-09-30T07:05:56;24.77;;;13.52;;
74044;SDS011;62389;51.412;5.436;2022-09-30T07:08:22;25.52;;;13.52;;
74044;SDS011;62389;51.412;5.436;2022-09-30T07:10:50;26.33;;;13.38;;
74044;SDS011;62389;51.412;5.436;2022-09-30T07:13:15;27.67;;;14.57;;
74044;SDS011;62389;51.412;5.436;2022-09-30T07:15:41;28.95;;;15.63;;
74044;SDS011;62389;51.412;5.436;2022-09-30T07:18:06;26.58;;;15.05;;
74044;SDS011;62389;51.412;5.436;2022-09-30T07:20:32;30.92;;;14.45;;
74044;SDS011;62389;51.412;5.436;2022-09-30T07:22:58;28.45;;;14.45;;
74044;SDS011;62389;51.412;5.436;2022-09-30T07:25:24;29.77;;;14.98;;
74044;SDS011;62389;51.412;5.436;2022-09-30T07:27:49;39.88;;;15.65;;
74044;SDS011;62389;51.412;5.436;2022-09-30T07:30:14;29.17;;;15.35;;
74044;SDS011;62389;51.412;5.436;2022-09-30T07:32:40;30.67;;;16.35;;
74044;SDS011;62389;51.412;5.436;2022-09-30T07:35:05;33.63;;;17.42;;
74044;SDS011;62389;51.412;5.436;2022-09-30T07:37:31;42.67;;;17.83;;
74044;SDS011;62389;51.412;5.436;2022-09-30T07:40:00;33.55;;;17.02;;
74044;SDS011;62389;51.412;5.436;2022-09-30T07:42:28;34.78;;;16.83;;
74044;SDS011;62389;51.412;5.436;2022-09-30T07:44:55;51.70;;;18.60;;
74044;SDS011;62389;51.412;5.436;2022-09-30T07:47:20;38.53;;;19.48;;
74044;SDS011;62389;51.412;5.436;2022-09-30T07:49:46;39.05;;;19.80;;
74044;SDS011;62389;51.412;5.436;2022-09-30T07:52:12;36.05;;;17.63;;
74044;SDS011;62389;51.412;5.436;2022-09-30T07:54:38;32.67;;;17.50;;
74044;SDS011;62389;51.412;5.436;2022-09-30T07:57:04;34.92;;;17.90;;
74044;SDS011;62389;51.412;5.436;2022-09-30T07:59:31;39.08;;;19.00;;
74044;SDS011;62389;51.412;5.436;2022-09-30T08:01:58;40.42;;;18.58;;
74044;SDS011;62389;51.412;5.436;2022-09-30T08:04:24;38.80;;;18.17;;
74044;SDS011;62389;51.412;5.436;2022-09-30T08:06:52;35.05;;;17.88;;
74044;SDS011;62389;51.412;5.436;2022-09-30T08:09:20;36.47;;;17.67;;
74044;SDS011;62389;51.412;5.436;2022-09-30T08:11:47;39.55;;;21.20;;
74044;SDS011;62389;51.412;5.436;2022-09-30T08:14:16;39.75;;;19.10;;
74044;SDS011;62389;51.412;5.436;2022-09-30T08:16:43;39.60;;;18.90;;
74044;SDS011;62389;51.412;5.436;2022-09-30T08:19:13;39.58;;;20.35;;
74044;SDS011;62389;51.412;5.436;2022-09-30T08:21:40;42.20;;;20.77;;
74044;SDS011;62389;51.412;5.436;2022-09-30T08:24:06;46.92;;;22.75;;
74044;SDS011;62389;51.412;5.436;2022-09-30T08:26:32;47.47;;;22.88;;
74044;SDS011;62389;51.412;5.436;2022-09-30T08:28:57;36.38;;;18.60;;
74044;SDS011;62389;51.412;5.436;2022-09-30T08:31:23;35.60;;;18.42;;
74044;SDS011;62389;51.412;5.436;2022-09-30T08:33:49;33.78;;;17.55;;
74044;SDS011;62389;51.412;5.436;2022-09-30T08:36:16;29.42;;;15.32;;
74044;SDS011;62389;51.412;5.436;2022-09-30T08:38:44;28.00;;;14.82;;
74044;SDS011;62389;51.412;5.436;2022-09-30T08:51:51;22.13;;;13.13;;
74044;SDS011;62389;51.412;5.436;2022-09-30T08:54:20;23.35;;;12.95;;
74044;SDS011;62389;51.412;5.436;2022-09-30T08:56:48;23.13;;;13.95;;
74044;SDS011;62389;51.412;5.436;2022-09-30T09:01:46;19.10;;;12.40;;
74044;SDS011;62389;51.412;5.436;2022-09-30T09:04:17;16.75;;;11.05;;
74044;SDS011;62389;51.412;5.436;2022-09-30T09:07:18;16.88;;;10.55;;
74044;SDS011;62389;51.412;5.436;2022-09-30T09:09:47;15.48;;;11.30;;
74044;SDS011;62389;51.412;5.436;2022-09-30T09:20:32;13.98;;;8.90;;
74044;SDS011;62389;51.412;5.436;2022-09-30T09:23:02;12.57;;;8.25;;
74044;SDS011;62389;51.412;5.436;2022-09-30T09:25:32;11.30;;;8.35;;
74044;SDS011;62389;51.412;5.436;2022-09-30T09:30:47;11.15;;;8.52;;
74044;SDS011;62389;51.412;5.436;2022-09-30T09:41:48;12.60;;;8.57;;
74044;SDS011;62389;51.412;5.436;2022-09-30T09:47:10;12.45;;;7.78;;
74044;SDS011;62389;51.412;5.436;2022-09-30T09:49:43;9.52;;;6.75;;
74044;SDS011;62389;51.412;5.436;2022-09-30T09:54:44;11.55;;;6.30;;
74044;SDS011;62389;51.412;5.436;2022-09-30T09:57:16;9.13;;;6.03;;
74044;SDS011;62389;51.412;5.436;2022-09-30T10:05:42;7.93;;;5.20;;
74044;SDS011;62389;51.412;5.436;2022-09-30T10:10:41;7.97;;;5.03;;
74044;SDS011;62389;51.412;5.436;2022-09-30T10:13:52;9.18;;;5.50;;
74044;SDS011;62389;51.412;5.436;2022-09-30T10:18:56;7.75;;;5.03;;
74044;SDS011;62389;51.412;5.436;2022-09-30T10:21:26;12.55;;;5.38;;
74044;SDS011;62389;51.412;5.436;2022-09-30T10:23:52;13.75;;;5.40;;
74044;SDS011;62389;51.412;5.436;2022-09-30T10:26:19;7.93;;;5.35;;
74044;SDS011;62389;51.412;5.436;2022-09-30T10:31:24;8.23;;;4.65;;
74044;SDS011;62389;51.412;5.436;2022-09-30T10:36:28;6.32;;;4.10;;
74044;SDS011;62389;51.412;5.436;2022-09-30T10:38:58;5.85;;;3.78;;
74044;SDS011;62389;51.412;5.436;2022-09-30T10:41:30;7.03;;;3.90;;
74044;SDS011;62389;51.412;5.436;2022-09-30T10:43:59;8.10;;;3.70;;
74044;SDS011;62389;51.412;5.436;2022-09-30T10:46:27;5.22;;;3.05;;
74044;SDS011;62389;51.412;5.436;2022-09-30T10:48:54;4.55;;;2.83;;
74044;SDS011;62389;51.412;5.436;2022-09-30T10:51:28;5.40;;;3.08;;
74044;SDS011;62389;51.412;5.436;2022-09-30T10:53:58;5.47;;;3.00;;
74044;SDS011;62389;51.412;5.436;2022-09-30T10:56:30;5.78;;;2.92;;
74044;SDS011;62389;51.412;5.436;2022-09-30T10:58:58;4.95;;;2.38;;
74044;SDS011;62389;51.412;5.436;2022-09-30T11:01:32;2.88;;;2.00;;
74044;SDS011;62389;51.412;5.436;2022-09-30T11:04:22;4.32;;;2.45;;
74044;SDS011;62389;51.412;5.436;2022-09-30T11:07:16;3.35;;;2.20;;
74044;SDS011;62389;51.412;5.436;2022-09-30T11:09:50;4.85;;;2.30;;
74044;SDS011;62389;51.412;5.436;2022-09-30T11:12:40;2.28;;;1.40;;
74044;SDS011;62389;51.412;5.436;2022-09-30T11:26:01;2.90;;;1.25;;
74044;SDS011;62389;51.412;5.436;2022-09-30T11:28:50;1.85;;;0.98;;
74044;SDS011;62389;51.412;5.436;2022-09-30T11:31:36;4.43;;;1.50;;
74044;SDS011;62389;51.412;5.436;2022-09-30T11:37:17;3.38;;;1.60;;
74044;SDS011;62389;51.412;5.436;2022-09-30T11:42:51;3.53;;;1.67;;
74044;SDS011;62389;51.412;5.436;2022-09-30T11:53:33;2.10;;;1.20;;
74044;SDS011;62389;51.412;5.436;2022-09-30T11:59:20;3.10;;;1.20;;
74044;SDS011;62389;51.412;5.436;2022-09-30T12:01:51;2.88;;;1.20;;
74044;SDS011;62389;51.412;5.436;2022-09-30T12:04:22;3.58;;;1.75;;
74044;SDS011;62389;51.412;5.436;2022-09-30T12:09:26;2.10;;;1.33;;
74044;SDS011;62389;51.412;5.436;2022-09-30T12:12:02;2.50;;;1.23;;
74044;SDS011;62389;51.412;5.436;2022-09-30T12:14:38;2.78;;;1.05;;
74044;SDS011;62389;51.412;5.436;2022-09-30T12:17:23;1.88;;;1.10;;
74044;SDS011;62389;51.412;5.436;2022-09-30T12:19:57;3.22;;;1.00;;
74044;SDS011;62389;51.412;5.436;2022-09-30T12:24:57;3.60;;;1.30;;
74044;SDS011;62389;51.412;5.436;2022-09-30T12:27:33;3.25;;;1.23;;
74044;SDS011;62389;51.412;5.436;2022-09-30T12:30:05;1.77;;;1.02;;
74044;SDS011;62389;51.412;5.436;2022-09-30T12:41:28;2.22;;;0.80;;
74044;SDS011;62389;51.412;5.436;2022-09-30T12:47:11;1.98;;;0.88;;
74044;SDS011;62389;51.412;5.436;2022-09-30T12:49:44;1.58;;;0.73;;
74044;SDS011;62389;51.412;5.436;2022-09-30T12:52:15;2.53;;;0.70;;
74044;SDS011;62389;51.412;5.436;2022-09-30T12:54:51;2.33;;;0.70;;
74044;SDS011;62389;51.412;5.436;2022-09-30T12:57:28;1.15;;;0.63;;
74044;SDS011;62389;51.412;5.436;2022-09-30T13:00:00;3.75;;;0.80;;
74044;SDS011;62389;51.412;5.436;2022-09-30T13:02:34;1.65;;;0.80;;
74044;SDS011;62389;51.412;5.436;2022-09-30T13:10:29;2.20;;;0.90;;
74044;SDS011;62389;51.412;5.436;2022-09-30T13:15:57;4.72;;;1.58;;
74044;SDS011;62389;51.412;5.436;2022-09-30T13:23:37;2.20;;;0.82;;
74044;SDS011;62389;51.412;5.436;2022-09-30T13:26:04;2.17;;;1.10;;
74044;SDS011;62389;51.412;5.436;2022-09-30T13:28:50;2.45;;;1.00;;
74044;SDS011;62389;51.412;5.436;2022-09-30T13:31:17;1.75;;;1.13;;
74044;SDS011;62389;51.412;5.436;2022-09-30T13:33:45;5.65;;;1.23;;
74044;SDS011;62389;51.412;5.436;2022-09-30T13:36:18;4.03;;;1.10;;
74044;SDS011;62389;51.412;5.436;2022-09-30T13:39:04;2.80;;;0.98;;
74044;SDS011;62389;51.412;5.436;2022-09-30T13:41:40;2.63;;;1.10;;
74044;SDS011;62389;51.412;5.436;2022-09-30T13:44:11;2.13;;;0.90;;
74044;SDS011;62389;51.412;5.436;2022-09-30T13:46:48;3.25;;;1.08;;
74044;SDS011;62389;51.412;5.436;2022-09-30T13:49:21;4.32;;;1.27;;
74044;SDS011;62389;51.412;5.436;2022-09-30T13:51:55;2.60;;;1.08;;
74044;SDS011;62389;51.412;5.436;2022-09-30T13:54:34;3.53;;;1.08;;
74044;SDS011;62389;51.412;5.436;2022-09-30T13:57:10;3.42;;;1.30;;
74044;SDS011;62389;51.412;5.436;2022-09-30T13:59:47;2.92;;;1.00;;
74044;SDS011;62389;51.412;5.436;2022-09-30T14:05:25;4.35;;;1.10;;
74044;SDS011;62389;51.412;5.436;2022-09-30T14:11:31;2.80;;;1.00;;
74044;SDS011;62389;51.412;5.436;2022-09-30T14:14:09;1.83;;;1.00;;
74044;SDS011;62389;51.412;5.436;2022-09-30T14:23:02;2.90;;;0.82;;
74044;SDS011;62389;51.412;5.436;2022-09-30T14:25:29;1.98;;;1.02;;
74044;SDS011;62389;51.412;5.436;2022-09-30T14:28:20;1.85;;;0.90;;
74044;SDS011;62389;51.412;5.436;2022-09-30T14:31:12;3.40;;;1.00;;
74044;SDS011;62389;51.412;5.436;2022-09-30T14:33:40;2.15;;;1.00;;
74044;SDS011;62389;51.412;5.436;2022-09-30T14:36:15;2.00;;;0.90;;
74044;SDS011;62389;51.412;5.436;2022-09-30T14:38:54;2.78;;;1.42;;
74044;SDS011;62389;51.412;5.436;2022-09-30T14:41:24;2.42;;;0.88;;
74044;SDS011;62389;51.412;5.436;2022-09-30T14:43:54;1.90;;;0.90;;
74044;SDS011;62389;51.412;5.436;2022-09-30T14:48:53;1.35;;;0.77;;
74044;SDS011;62389;51.412;5.436;2022-09-30T14:51:25;3.05;;;0.95;;
74044;SDS011;62389;51.412;5.436;2022-09-30T14:53:53;5.00;;;0.90;;
74044;SDS011;62389;51.412;5.436;2022-09-30T14:56:30;2.50;;;0.93;;
74044;SDS011;62389;51.412;5.436;2022-09-30T14:58:59;2.97;;;1.30;;
74044;SDS011;62389;51.412;5.436;2022-09-30T15:01:36;2.72;;;0.85;;
74044;SDS011;62389;51.412;5.436;2022-09-30T15:06:36;4.68;;;1.52;;
74044;SDS011;62389;51.412;5.436;2022-09-30T15:09:07;2.72;;;1.08;;
74044;SDS011;62389;51.412;5.436;2022-09-30T15:11:41;2.35;;;1.10;;
74044;SDS011;62389;51.412;5.436;2022-09-30T15:14:09;1.70;;;0.80;;
74044;SDS011;62389;51.412;5.436;2022-09-30T15:16:52;4.57;;;0.98;;
74044;SDS011;62389;51.412;5.436;2022-09-30T15:19:26;2.35;;;1.05;;
74044;SDS011;62389;51.412;5.436;2022-09-30T15:22:00;2.38;;;0.90;;
74044;SDS011;62389;51.412;5.436;2022-09-30T15:24:28;4.97;;;1.13;;
74044;SDS011;62389;51.412;5.436;2022-09-30T15:26:55;3.80;;;1.30;;
74044;SDS011;62389;51.412;5.436;2022-09-30T15:29:21;5.10;;;1.27;;
74044;SDS011;62389;51.412;5.436;2022-09-30T15:32:29;2.42;;;1.20;;
74044;SDS011;62389;51.412;5.436;2022-09-30T15:34:39;2.85;;;1.60;;
74044;SDS011;62389;51.412;5.436;2022-09-30T15:37:14;4.50;;;1.88;;
74044;SDS011;62389;51.412;5.436;2022-09-30T15:39:45;5.60;;;1.73;;
74044;SDS011;62389;51.412;5.436;2022-09-30T15:42:38;4.07;;;1.50;;
74044;SDS011;62389;51.412;5.436;2022-09-30T15:48:04;3.28;;;1.35;;
74044;SDS011;62389;51.412;5.436;2022-09-30T15:51:21;3.67;;;1.80;;
74044;SDS011;62389;51.412;5.436;2022-09-30T15:59:01;3.83;;;1.55;;
74044;SDS011;62389;51.412;5.436;2022-09-30T16:01:43;2.58;;;1.40;;
74044;SDS011;62389;51.412;5.436;2022-09-30T16:04:11;5.30;;;1.95;;
74044;SDS011;62389;51.412;5.436;2022-09-30T16:06:49;2.88;;;1.50;;
74044;SDS011;62389;51.412;5.436;2022-09-30T16:11:45;4.53;;;1.50;;
74044;SDS011;62389;51.412;5.436;2022-09-30T16:14:18;3.17;;;1.60;;
74044;SDS011;62389;51.412;5.436;2022-09-30T16:16:51;2.72;;;1.38;;
74044;SDS011;62389;51.412;5.436;2022-09-30T16:19:19;3.42;;;1.70;;
74044;SDS011;62389;51.412;5.436;2022-09-30T16:21:46;3.95;;;1.42;;
74044;SDS011;62389;51.412;5.436;2022-09-30T16:25:02;3.22;;;1.50;;
74044;SDS011;62389;51.412;5.436;2022-09-30T16:27:21;5.63;;;1.67;;
74044;SDS011;62389;51.412;5.436;2022-09-30T16:29:50;2.90;;;1.70;;
74044;SDS011;62389;51.412;5.436;2022-09-30T16:32:16;3.55;;;1.88;;
74044;SDS011;62389;51.412;5.436;2022-09-30T16:34:41;2.88;;;1.77;;
74044;SDS011;62389;51.412;5.436;2022-09-30T16:37:11;5.55;;;2.50;;
74044;SDS011;62389;51.412;5.436;2022-09-30T16:39:38;3.97;;;2.30;;
74044;SDS011;62389;51.412;5.436;2022-09-30T16:42:04;3.85;;;1.70;;
74044;SDS011;62389;51.412;5.436;2022-09-30T16:44:29;2.53;;;1.58;;
74044;SDS011;62389;51.412;5.436;2022-09-30T16:46:58;2.88;;;1.48;;
74044;SDS011;62389;51.412;5.436;2022-09-30T16:51:50;3.10;;;1.33;;
74044;SDS011;62389;51.412;5.436;2022-09-30T16:54:15;1.95;;;1.38;;
74044;SDS011;62389;51.412;5.436;2022-09-30T16:56:41;3.40;;;1.50;;
74044;SDS011;62389;51.412;5.436;2022-09-30T16:59:09;2.83;;;1.70;;
74044;SDS011;62389;51.412;5.436;2022-09-30T17:01:37;3.83;;;1.42;;
74044;SDS011;62389;51.412;5.436;2022-09-30T17:04:02;3.10;;;1.80;;
74044;SDS011;62389;51.412;5.436;2022-09-30T17:06:29;4.20;;;1.67;;
74044;SDS011;62389;51.412;5.436;2022-09-30T17:08:55;3.08;;;1.60;;
74044;SDS011;62389;51.412;5.436;2022-09-30T17:11:23;2.50;;;1.67;;
74044;SDS011;62389;51.412;5.436;2022-09-30T17:13:52;3.58;;;1.63;;
74044;SDS011;62389;51.412;5.436;2022-09-30T17:16:17;2.83;;;1.70;;
74044;SDS011;62389;51.412;5.436;2022-09-30T17:18:43;3.90;;;1.80;;
74044;SDS011;62389;51.412;5.436;2022-09-30T17:21:08;4.68;;;2.00;;
74044;SDS011;62389;51.412;5.436;2022-09-30T17:23:33;3.17;;;1.65;;
74044;SDS011;62389;51.412;5.436;2022-09-30T17:26:02;3.03;;;1.60;;
74044;SDS011;62389;51.412;5.436;2022-09-30T17:28:28;5.45;;;1.92;;
74044;SDS011;62389;51.412;5.436;2022-09-30T17:30:53;4.93;;;1.70;;
74044;SDS011;62389;51.412;5.436;2022-09-30T17:33:19;3.75;;;2.10;;
74044;SDS011;62389;51.412;5.436;2022-09-30T17:35:44;3.75;;;1.90;;
74044;SDS011;62389;51.412;5.436;2022-09-30T17:38:10;3.42;;;1.77;;
74044;SDS011;62389;51.412;5.436;2022-09-30T17:40:36;2.92;;;1.80;;
74044;SDS011;62389;51.412;5.436;2022-09-30T17:43:21;5.60;;;2.33;;
74044;SDS011;62389;51.412;5.436;2022-09-30T17:45:46;5.45;;;2.67;;
74044;SDS011;62389;51.412;5.436;2022-09-30T17:48:13;3.83;;;1.80;;
74044;SDS011;62389;51.412;5.436;2022-09-30T17:50:41;4.70;;;1.92;;
74044;SDS011;62389;51.412;5.436;2022-09-30T17:53:09;6.20;;;2.20;;
74044;SDS011;62389;51.412;5.436;2022-09-30T17:55:41;4.43;;;1.83;;
74044;SDS011;62389;51.412;5.436;2022-09-30T17:58:07;5.03;;;2.05;;
74044;SDS011;62389;51.412;5.436;2022-09-30T18:00:33;4.93;;;2.08;;
74044;SDS011;62389;51.412;5.436;2022-09-30T18:03:00;4.28;;;2.10;;
74044;SDS011;62389;51.412;5.436;2022-09-30T18:07:52;3.13;;;1.93;;
74044;SDS011;62389;51.412;5.436;2022-09-30T18:10:18;3.50;;;1.85;;
74044;SDS011;62389;51.412;5.436;2022-09-30T18:12:43;6.10;;;2.50;;
74044;SDS011;62389;51.412;5.436;2022-09-30T18:15:11;3.28;;;2.00;;
74044;SDS011;62389;51.412;5.436;2022-09-30T18:17:37;4.70;;;2.17;;
74044;SDS011;62389;51.412;5.436;2022-09-30T18:20:02;2.92;;;2.28;;
74044;SDS011;62389;51.412;5.436;2022-09-30T18:22:28;5.10;;;2.38;;
74044;SDS011;62389;51.412;5.436;2022-09-30T18:24:53;5.50;;;2.25;;
74044;SDS011;62389;51.412;5.436;2022-09-30T18:27:37;5.68;;;2.67;;
74044;SDS011;62389;51.412;5.436;2022-09-30T18:30:03;4.57;;;2.80;;
74044;SDS011;62389;51.412;5.436;2022-09-30T18:32:30;4.25;;;2.70;;